createdAt,value
2023-04-26T00:05:13.018Z,1.8
2023-04-26T00:24:22.163Z,1.8
2023-04-26T00:43:29.285Z,1.4
2023-04-26T01:02:39.552Z,1.4
2023-04-26T01:21:48.056Z,1.4
2023-04-26T01:40:59.093Z,1.1
2023-04-26T02:00:07.361Z,1.3
2023-04-26T02:19:16.663Z,1.3
2023-04-26T02:38:26.586Z,1.2
2023-04-26T02:57:36.968Z,1
2023-04-26T03:16:46.403Z,1
2023-04-26T03:35:57.176Z,1.1
2023-04-26T03:55:09.820Z,0.8
2023-04-26T04:14:17.258Z,0.8
2023-04-26T04:33:29.044Z,0.7
2023-04-26T04:52:39.517Z,0.6
2023-04-26T05:11:49.633Z,0.9
2023-04-26T05:31:00.008Z,1.3
2023-04-26T05:50:11.054Z,1.7
2023-04-26T06:09:26.280Z,2.1
2023-04-26T06:28:34.129Z,2.7
2023-04-26T06:47:47.110Z,2.7
2023-04-26T07:07:01.683Z,2.8
2023-04-26T07:26:17.297Z,3.3
2023-04-26T07:45:43.020Z,3.8
2023-04-26T08:05:03.166Z,2.1
2023-04-26T08:24:15.402Z,2
2023-04-26T08:43:24.484Z,0.8
2023-04-26T09:02:35.143Z,1.9
2023-04-26T09:21:46.152Z,0.8
2023-04-26T09:40:55.661Z,1.2
2023-04-26T10:00:06.718Z,0.8
2023-04-26T10:19:21.609Z,1.1
2023-04-26T10:38:32.320Z,0.8
2023-04-26T10:57:53.118Z,0.3
2023-04-26T11:16:55.170Z,0.1
2023-04-26T11:36:09.085Z,0.1
2023-04-26T11:55:25.027Z,0.3
2023-04-26T12:14:35.540Z,0.5
2023-04-26T12:33:45.933Z,1.2
2023-04-26T12:53:01.939Z,0.3
2023-04-26T13:12:02.757Z,0.4
2023-04-26T13:31:12.898Z,0.1
2023-04-26T13:50:27.331Z,1.2
2023-04-26T14:09:32.717Z,-0.3
2023-04-26T14:28:50.240Z,-0.1
2023-04-26T14:47:59.286Z,-0.3
2023-04-26T15:07:06.636Z,-0.2
2023-04-26T15:26:19.767Z,-0.2
2023-04-26T15:45:29.761Z,-0.1
2023-04-26T16:04:44.559Z,0.3
2023-04-26T16:23:55.423Z,0.2
2023-04-26T16:43:04.198Z,0.4
2023-04-26T17:02:15.033Z,0.1
2023-04-26T17:21:25.663Z,-0.1
2023-04-26T17:40:34.338Z,-0.3
2023-04-26T17:59:45.175Z,0
2023-04-26T18:18:53.319Z,0.2
2023-04-26T18:38:03.669Z,0.2
2023-04-26T18:57:14.548Z,0.3
2023-04-26T19:16:25.404Z,0.3
2023-04-26T19:35:35.973Z,0.5
2023-04-26T19:54:41.456Z,1
2023-04-26T20:13:54.888Z,0.9
2023-04-26T20:33:02.933Z,1.1
2023-04-26T20:52:14.547Z,1.8
2023-04-26T21:11:25.337Z,1.5
2023-04-26T21:30:33.529Z,1.5
2023-04-26T21:49:45.208Z,1.6
2023-04-26T22:08:55.209Z,2
2023-04-26T22:28:06.433Z,2.2
2023-04-26T22:47:17.193Z,1.7
2023-04-26T23:06:28.822Z,2
2023-04-26T23:25:40.690Z,2.7
2023-04-26T23:44:51.520Z,2
